OAK Airport (Metropolitan Oakland Intl) Information

FAA: OAK - ICAO: KOAK

OAK Airport Location

State California
County Alameda
City Oakland
OAK Airport is 4 miles south of Oakland, CA.
Latitude 37-43-16.5000N
Longitude 122-13-16.1000W
Elevation 9ft

KOAK Airport METARs

METAR KOAK 060653Z 28006KT 10SM FEW008 SCT012 BKN017 18/14 A2998 RMK AO2 SLP149 T01780144
Altimeter 29.98"
Temperature 17.8°C (64.0°F)
Wind 280° at 6KT
Clouds few at 800ft scattered at 1,200ft broken at 1,700ft
Visibility 10.0mi
Time observed: 2022-07-06T06:53:00Z

OAK Airport Details

Status Operational
Activation April 1940
Ownership Public
Usage Public
Chart SAN FRANCISCO
ATC on-site Yes
Beacon schedule sunset-sunrise
Beacon color clear green

OAK Airport Contacts

Owner PORT OF OAKLAND
Owner address 530 WATER ST., OAKLAND, CA 94607
Owner phone 510-563-3300
Manager DAN JENSEN
Manager address 451 #A AIRPORT ROAD, NOVATO, CA 94945
Manager phone 415-897-1754

OAK Airport (Metropolitan Oakland Intl) Radio Frequencies

OAK (Airport) Radio Frequencies

UNICOM 122.95
Common traffic advisory frequency (CTAF) N/A